sensor_id;sensor_type;location;lat;lon;timestamp;P1;durP1;ratioP1;P2;durP2;ratioP2
76962;SDS011;65902;51.452;7.198;2023-02-11T00:11:13;30.65;;;18.15;;
76962;SDS011;65902;51.452;7.198;2023-02-11T00:12:20;35.53;;;21.27;;
76962;SDS011;65902;51.452;7.198;2023-02-11T00:14:08;28.95;;;17.48;;
76962;SDS011;65902;51.452;7.198;2023-02-11T00:15:36;36.80;;;21.17;;
76962;SDS011;65902;51.452;7.198;2023-02-11T00:16:39;34.58;;;24.30;;
76962;SDS011;65902;51.452;7.198;2023-02-11T00:18:23;32.50;;;19.77;;
76962;SDS011;65902;51.452;7.198;2023-02-11T00:19:24;35.75;;;20.92;;
76962;SDS011;65902;51.452;7.198;2023-02-11T00:20:25;38.83;;;23.67;;
76962;SDS011;65902;51.452;7.198;2023-02-11T00:21:26;33.13;;;23.42;;
76962;SDS011;65902;51.452;7.198;2023-02-11T00:22:27;33.53;;;22.48;;
76962;SDS011;65902;51.452;7.198;2023-02-11T00:23:32;32.05;;;20.70;;
76962;SDS011;65902;51.452;7.198;2023-02-11T00:24:42;31.05;;;20.42;;
76962;SDS011;65902;51.452;7.198;2023-02-11T00:25:56;34.88;;;25.15;;
76962;SDS011;65902;51.452;7.198;2023-02-11T00:32:39;29.88;;;16.73;;
76962;SDS011;65902;51.452;7.198;2023-02-11T00:35:53;32.72;;;20.98;;
76962;SDS011;65902;51.452;7.198;2023-02-11T00:36:54;33.47;;;19.50;;
76962;SDS011;65902;51.452;7.198;2023-02-11T00:37:54;33.22;;;23.48;;
76962;SDS011;65902;51.452;7.198;2023-02-11T00:38:56;33.83;;;19.27;;
76962;SDS011;65902;51.452;7.198;2023-02-11T00:39:57;33.25;;;19.63;;
76962;SDS011;65902;51.452;7.198;2023-02-11T00:40:58;38.20;;;23.10;;
76962;SDS011;65902;51.452;7.198;2023-02-11T00:41:58;38.90;;;22.95;;
76962;SDS011;65902;51.452;7.198;2023-02-11T00:42:59;30.67;;;20.83;;
76962;SDS011;65902;51.452;7.198;2023-02-11T00:44:00;35.03;;;23.75;;
76962;SDS011;65902;51.452;7.198;2023-02-11T00:45:02;38.92;;;22.38;;
76962;SDS011;65902;51.452;7.198;2023-02-11T00:46:03;37.33;;;22.02;;
76962;SDS011;65902;51.452;7.198;2023-02-11T00:47:04;32.10;;;21.10;;
76962;SDS011;65902;51.452;7.198;2023-02-11T00:48:04;32.42;;;21.75;;
76962;SDS011;65902;51.452;7.198;2023-02-11T00:49:08;31.33;;;20.63;;
76962;SDS011;65902;51.452;7.198;2023-02-11T00:50:18;29.88;;;18.45;;
76962;SDS011;65902;51.452;7.198;2023-02-11T00:51:19;33.45;;;20.33;;
76962;SDS011;65902;51.452;7.198;2023-02-11T00:52:20;29.83;;;20.25;;
76962;SDS011;65902;51.452;7.198;2023-02-11T00:53:21;35.30;;;20.10;;
76962;SDS011;65902;51.452;7.198;2023-02-11T00:54:25;33.90;;;21.90;;
76962;SDS011;65902;51.452;7.198;2023-02-11T00:55:26;32.05;;;21.77;;
76962;SDS011;65902;51.452;7.198;2023-02-11T00:56:27;37.03;;;22.08;;
76962;SDS011;65902;51.452;7.198;2023-02-11T00:57:27;33.20;;;19.98;;
76962;SDS011;65902;51.452;7.198;2023-02-11T00:58:29;31.10;;;20.48;;
76962;SDS011;65902;51.452;7.198;2023-02-11T00:59:30;28.92;;;19.10;;
76962;SDS011;65902;51.452;7.198;2023-02-11T01:00:33;34.03;;;21.00;;
76962;SDS011;65902;51.452;7.198;2023-02-11T01:01:33;31.58;;;21.27;;
76962;SDS011;65902;51.452;7.198;2023-02-11T01:02:37;34.42;;;19.65;;
76962;SDS011;65902;51.452;7.198;2023-02-11T01:03:38;31.45;;;19.58;;
76962;SDS011;65902;51.452;7.198;2023-02-11T01:04:39;38.15;;;21.65;;
76962;SDS011;65902;51.452;7.198;2023-02-11T01:05:39;29.48;;;19.23;;
76962;SDS011;65902;51.452;7.198;2023-02-11T01:06:40;34.03;;;21.02;;
76962;SDS011;65902;51.452;7.198;2023-02-11T01:07:40;32.20;;;21.70;;
76962;SDS011;65902;51.452;7.198;2023-02-11T01:08:41;29.85;;;20.98;;
76962;SDS011;65902;51.452;7.198;2023-02-11T01:09:42;27.00;;;18.08;;
76962;SDS011;65902;51.452;7.198;2023-02-11T01:10:42;34.80;;;22.17;;
76962;SDS011;65902;51.452;7.198;2023-02-11T01:11:43;29.83;;;19.20;;
76962;SDS011;65902;51.452;7.198;2023-02-11T01:12:43;32.83;;;23.15;;
76962;SDS011;65902;51.452;7.198;2023-02-11T01:13:45;29.15;;;19.20;;
76962;SDS011;65902;51.452;7.198;2023-02-11T01:14:48;33.38;;;22.27;;
76962;SDS011;65902;51.452;7.198;2023-02-11T01:15:49;25.58;;;19.10;;
76962;SDS011;65902;51.452;7.198;2023-02-11T01:16:50;32.88;;;19.08;;
76962;SDS011;65902;51.452;7.198;2023-02-11T01:17:51;33.05;;;22.70;;
76962;SDS011;65902;51.452;7.198;2023-02-11T01:18:52;32.10;;;19.98;;
76962;SDS011;65902;51.452;7.198;2023-02-11T01:19:55;28.33;;;17.60;;
76962;SDS011;65902;51.452;7.198;2023-02-11T01:20:55;28.08;;;17.80;;
76962;SDS011;65902;51.452;7.198;2023-02-11T01:21:56;30.25;;;21.13;;
76962;SDS011;65902;51.452;7.198;2023-02-11T01:22:56;34.30;;;17.30;;
76962;SDS011;65902;51.452;7.198;2023-02-11T01:23:57;28.63;;;18.00;;
76962;SDS011;65902;51.452;7.198;2023-02-11T01:24:58;31.92;;;19.63;;
76962;SDS011;65902;51.452;7.198;2023-02-11T01:25:59;30.27;;;20.70;;
76962;SDS011;65902;51.452;7.198;2023-02-11T01:26:59;30.70;;;18.63;;
76962;SDS011;65902;51.452;7.198;2023-02-11T01:28:03;27.48;;;17.50;;
76962;SDS011;65902;51.452;7.198;2023-02-11T01:29:04;29.58;;;20.27;;
76962;SDS011;65902;51.452;7.198;2023-02-11T01:30:05;33.67;;;20.38;;
76962;SDS011;65902;51.452;7.198;2023-02-11T01:31:08;33.28;;;19.25;;
76962;SDS011;65902;51.452;7.198;2023-02-11T01:32:08;26.67;;;19.60;;
76962;SDS011;65902;51.452;7.198;2023-02-11T01:33:09;32.03;;;19.65;;
76962;SDS011;65902;51.452;7.198;2023-02-11T01:34:10;30.02;;;17.92;;
76962;SDS011;65902;51.452;7.198;2023-02-11T01:35:10;29.23;;;19.20;;
76962;SDS011;65902;51.452;7.198;2023-02-11T01:36:11;31.67;;;19.23;;
76962;SDS011;65902;51.452;7.198;2023-02-11T01:37:12;25.60;;;16.88;;
76962;SDS011;65902;51.452;7.198;2023-02-11T01:38:17;26.52;;;17.05;;
76962;SDS011;65902;51.452;7.198;2023-02-11T01:39:22;23.23;;;16.80;;
76962;SDS011;65902;51.452;7.198;2023-02-11T01:40:23;28.42;;;18.40;;
76962;SDS011;65902;51.452;7.198;2023-02-11T01:41:24;31.27;;;20.58;;
76962;SDS011;65902;51.452;7.198;2023-02-11T01:42:25;26.23;;;16.33;;
76962;SDS011;65902;51.452;7.198;2023-02-11T01:43:26;28.95;;;17.15;;
76962;SDS011;65902;51.452;7.198;2023-02-11T01:46:46;26.65;;;16.35;;
76962;SDS011;65902;51.452;7.198;2023-02-11T01:47:46;28.83;;;17.45;;
76962;SDS011;65902;51.452;7.198;2023-02-11T01:48:49;26.08;;;17.65;;
76962;SDS011;65902;51.452;7.198;2023-02-11T01:50:16;31.10;;;19.25;;
76962;SDS011;65902;51.452;7.198;2023-02-11T01:51:26;28.20;;;16.95;;
76962;SDS011;65902;51.452;7.198;2023-02-11T01:52:34;27.23;;;18.30;;
76962;SDS011;65902;51.452;7.198;2023-02-11T01:54:57;27.83;;;18.02;;
76962;SDS011;65902;51.452;7.198;2023-02-11T01:56:19;28.20;;;17.30;;
76962;SDS011;65902;51.452;7.198;2023-02-11T01:57:40;26.75;;;16.13;;
76962;SDS011;65902;51.452;7.198;2023-02-11T01:58:43;23.85;;;18.15;;
76962;SDS011;65902;51.452;7.198;2023-02-11T02:01:04;30.55;;;16.48;;
76962;SDS011;65902;51.452;7.198;2023-02-11T02:02:07;24.15;;;16.38;;
76962;SDS011;65902;51.452;7.198;2023-02-11T02:03:19;26.13;;;19.83;;
76962;SDS011;65902;51.452;7.198;2023-02-11T02:04:24;30.50;;;18.23;;
76962;SDS011;65902;51.452;7.198;2023-02-11T02:07:02;24.00;;;15.55;;
76962;SDS011;65902;51.452;7.198;2023-02-11T02:08:20;32.10;;;18.00;;
76962;SDS011;65902;51.452;7.198;2023-02-11T02:09:33;28.60;;;18.88;;
76962;SDS011;65902;51.452;7.198;2023-02-11T02:10:41;30.05;;;16.95;;
76962;SDS011;65902;51.452;7.198;2023-02-11T02:11:43;33.17;;;21.42;;
76962;SDS011;65902;51.452;7.198;2023-02-11T02:12:43;27.17;;;18.52;;
76962;SDS011;65902;51.452;7.198;2023-02-11T02:13:44;30.17;;;19.40;;
76962;SDS011;65902;51.452;7.198;2023-02-11T02:14:45;30.63;;;19.73;;
76962;SDS011;65902;51.452;7.198;2023-02-11T02:15:52;25.98;;;18.90;;
76962;SDS011;65902;51.452;7.198;2023-02-11T02:16:57;23.85;;;17.77;;
76962;SDS011;65902;51.452;7.198;2023-02-11T02:23:38;27.60;;;18.83;;
76962;SDS011;65902;51.452;7.198;2023-02-11T02:24:57;28.45;;;19.77;;
76962;SDS011;65902;51.452;7.198;2023-02-11T02:31:49;27.65;;;17.23;;
76962;SDS011;65902;51.452;7.198;2023-02-11T02:36:44;28.50;;;16.83;;
76962;SDS011;65902;51.452;7.198;2023-02-11T02:38:14;28.20;;;17.42;;
76962;SDS011;65902;51.452;7.198;2023-02-11T02:39:18;25.25;;;18.38;;
76962;SDS011;65902;51.452;7.198;2023-02-11T02:41:05;27.50;;;19.33;;
76962;SDS011;65902;51.452;7.198;2023-02-11T02:41:47;19.88;;;13.57;;
76962;SDS011;65902;51.452;7.198;2023-02-11T02:42:47;27.27;;;22.10;;
76962;SDS011;65902;51.452;7.198;2023-02-11T02:43:49;31.13;;;18.15;;
76962;SDS011;65902;51.452;7.198;2023-02-11T02:44:52;29.67;;;19.52;;
76962;SDS011;65902;51.452;7.198;2023-02-11T02:46:07;25.50;;;16.15;;
76962;SDS011;65902;51.452;7.198;2023-02-11T02:47:13;34.92;;;21.48;;
76962;SDS011;65902;51.452;7.198;2023-02-11T02:48:24;33.55;;;19.88;;
76962;SDS011;65902;51.452;7.198;2023-02-11T02:49:32;26.23;;;17.73;;
76962;SDS011;65902;51.452;7.198;2023-02-11T02:50:34;28.45;;;19.52;;
76962;SDS011;65902;51.452;7.198;2023-02-11T02:54:11;31.88;;;20.10;;
76962;SDS011;65902;51.452;7.198;2023-02-11T02:55:27;30.25;;;20.40;;
76962;SDS011;65902;51.452;7.198;2023-02-11T02:59:36;28.65;;;19.52;;
76962;SDS011;65902;51.452;7.198;2023-02-11T03:06:50;23.00;;;17.95;;
76962;SDS011;65902;51.452;7.198;2023-02-11T03:07:55;31.88;;;18.00;;
76962;SDS011;65902;51.452;7.198;2023-02-11T03:10:39;28.38;;;18.17;;
76962;SDS011;65902;51.452;7.198;2023-02-11T03:11:42;27.50;;;18.33;;
76962;SDS011;65902;51.452;7.198;2023-02-11T03:12:42;21.10;;;14.57;;
76962;SDS011;65902;51.452;7.198;2023-02-11T03:13:44;30.77;;;18.45;;
76962;SDS011;65902;51.452;7.198;2023-02-11T03:14:45;31.00;;;20.98;;
76962;SDS011;65902;51.452;7.198;2023-02-11T03:15:47;27.20;;;16.50;;
76962;SDS011;65902;51.452;7.198;2023-02-11T03:16:53;32.28;;;22.02;;
76962;SDS011;65902;51.452;7.198;2023-02-11T03:17:55;25.65;;;19.20;;
76962;SDS011;65902;51.452;7.198;2023-02-11T03:19:00;29.27;;;20.48;;
76962;SDS011;65902;51.452;7.198;2023-02-11T03:20:03;30.08;;;20.20;;
76962;SDS011;65902;51.452;7.198;2023-02-11T03:21:05;33.75;;;19.23;;
76962;SDS011;65902;51.452;7.198;2023-02-11T03:22:12;29.02;;;18.30;;
76962;SDS011;65902;51.452;7.198;2023-02-11T03:23:32;24.10;;;15.45;;
76962;SDS011;65902;51.452;7.198;2023-02-11T03:24:38;27.77;;;17.52;;
76962;SDS011;65902;51.452;7.198;2023-02-11T03:25:43;25.98;;;17.30;;
76962;SDS011;65902;51.452;7.198;2023-02-11T03:26:50;36.22;;;20.90;;
76962;SDS011;65902;51.452;7.198;2023-02-11T03:27:55;24.23;;;16.23;;
76962;SDS011;65902;51.452;7.198;2023-02-11T03:31:25;24.77;;;17.48;;
76962;SDS011;65902;51.452;7.198;2023-02-11T03:33:02;23.10;;;13.68;;
76962;SDS011;65902;51.452;7.198;2023-02-11T03:34:09;28.60;;;15.50;;
76962;SDS011;65902;51.452;7.198;2023-02-11T03:35:18;30.90;;;17.67;;
76962;SDS011;65902;51.452;7.198;2023-02-11T03:36:35;25.20;;;15.38;;
76962;SDS011;65902;51.452;7.198;2023-02-11T03:37:56;26.02;;;17.40;;
76962;SDS011;65902;51.452;7.198;2023-02-11T03:38:59;27.48;;;18.23;;
76962;SDS011;65902;51.452;7.198;2023-02-11T03:40:11;21.95;;;18.38;;
76962;SDS011;65902;51.452;7.198;2023-02-11T03:41:14;30.75;;;20.23;;
76962;SDS011;65902;51.452;7.198;2023-02-11T03:42:17;28.92;;;19.45;;
76962;SDS011;65902;51.452;7.198;2023-02-11T03:43:19;22.40;;;15.68;;
76962;SDS011;65902;51.452;7.198;2023-02-11T03:44:22;28.77;;;18.75;;
76962;SDS011;65902;51.452;7.198;2023-02-11T03:45:26;21.13;;;16.65;;
76962;SDS011;65902;51.452;7.198;2023-02-11T03:46:29;30.27;;;19.17;;
76962;SDS011;65902;51.452;7.198;2023-02-11T03:47:32;29.13;;;17.75;;
76962;SDS011;65902;51.452;7.198;2023-02-11T03:48:39;31.67;;;17.67;;
76962;SDS011;65902;51.452;7.198;2023-02-11T03:49:42;31.05;;;18.48;;
76962;SDS011;65902;51.452;7.198;2023-02-11T03:50:45;22.77;;;17.48;;
76962;SDS011;65902;51.452;7.198;2023-02-11T03:51:50;31.38;;;18.00;;
76962;SDS011;65902;51.452;7.198;2023-02-11T03:52:51;29.65;;;18.35;;
76962;SDS011;65902;51.452;7.198;2023-02-11T03:53:53;26.08;;;17.23;;
76962;SDS011;65902;51.452;7.198;2023-02-11T03:54:56;24.10;;;15.95;;
76962;SDS011;65902;51.452;7.198;2023-02-11T03:55:59;28.45;;;18.30;;
76962;SDS011;65902;51.452;7.198;2023-02-11T03:57:02;30.55;;;19.83;;
76962;SDS011;65902;51.452;7.198;2023-02-11T03:58:04;26.48;;;17.77;;
76962;SDS011;65902;51.452;7.198;2023-02-11T03:59:04;31.05;;;18.35;;
76962;SDS011;65902;51.452;7.198;2023-02-11T04:00:05;33.70;;;20.90;;
76962;SDS011;65902;51.452;7.198;2023-02-11T04:01:06;36.25;;;23.95;;
76962;SDS011;65902;51.452;7.198;2023-02-11T04:02:11;26.75;;;20.35;;
76962;SDS011;65902;51.452;7.198;2023-02-11T04:03:14;27.48;;;20.23;;
76962;SDS011;65902;51.452;7.198;2023-02-11T04:04:15;27.90;;;16.98;;
76962;SDS011;65902;51.452;7.198;2023-02-11T04:05:16;35.47;;;20.90;;
76962;SDS011;65902;51.452;7.198;2023-02-11T04:06:16;31.40;;;21.50;;
76962;SDS011;65902;51.452;7.198;2023-02-11T04:07:17;25.15;;;18.60;;
76962;SDS011;65902;51.452;7.198;2023-02-11T04:08:17;31.20;;;19.77;;
76962;SDS011;65902;51.452;7.198;2023-02-11T04:09:18;31.52;;;21.17;;
76962;SDS011;65902;51.452;7.198;2023-02-11T04:10:21;38.78;;;22.88;;
76962;SDS011;65902;51.452;7.198;2023-02-11T04:11:22;32.17;;;18.23;;
76962;SDS011;65902;51.452;7.198;2023-02-11T04:12:23;28.95;;;19.95;;
76962;SDS011;65902;51.452;7.198;2023-02-11T04:13:26;34.65;;;22.25;;
76962;SDS011;65902;51.452;7.198;2023-02-11T04:14:29;27.38;;;19.58;;
76962;SDS011;65902;51.452;7.198;2023-02-11T04:15:30;32.28;;;18.92;;
76962;SDS011;65902;51.452;7.198;2023-02-11T04:16:36;37.83;;;20.67;;
76962;SDS011;65902;51.452;7.198;2023-02-11T04:17:39;32.13;;;19.85;;
76962;SDS011;65902;51.452;7.198;2023-02-11T04:18:40;41.72;;;21.35;;
76962;SDS011;65902;51.452;7.198;2023-02-11T04:19:42;30.13;;;20.25;;
76962;SDS011;65902;51.452;7.198;2023-02-11T04:20:42;35.08;;;20.75;;
76962;SDS011;65902;51.452;7.198;2023-02-11T04:21:45;32.80;;;20.33;;
76962;SDS011;65902;51.452;7.198;2023-02-11T04:22:46;30.85;;;20.58;;
76962;SDS011;65902;51.452;7.198;2023-02-11T04:23:47;39.17;;;20.02;;
76962;SDS011;65902;51.452;7.198;2023-02-11T04:24:48;40.08;;;21.92;;
76962;SDS011;65902;51.452;7.198;2023-02-11T04:25:50;34.72;;;20.77;;
76962;SDS011;65902;51.452;7.198;2023-02-11T04:26:51;30.00;;;19.35;;
76962;SDS011;65902;51.452;7.198;2023-02-11T04:27:52;29.13;;;19.98;;
76962;SDS011;65902;51.452;7.198;2023-02-11T04:28:53;21.77;;;16.27;;
76962;SDS011;65902;51.452;7.198;2023-02-11T04:29:54;37.78;;;23.77;;
76962;SDS011;65902;51.452;7.198;2023-02-11T04:30:54;38.05;;;23.17;;
76962;SDS011;65902;51.452;7.198;2023-02-11T04:31:55;32.63;;;21.33;;
76962;SDS011;65902;51.452;7.198;2023-02-11T04:32:56;35.60;;;20.63;;
76962;SDS011;65902;51.452;7.198;2023-02-11T04:33:57;43.50;;;22.80;;
76962;SDS011;65902;51.452;7.198;2023-02-11T04:35:00;35.55;;;20.70;;
76962;SDS011;65902;51.452;7.198;2023-02-11T04:36:02;36.25;;;22.35;;
76962;SDS011;65902;51.452;7.198;2023-02-11T04:37:03;36.60;;;22.45;;
76962;SDS011;65902;51.452;7.198;2023-02-11T04:38:03;38.20;;;20.58;;
76962;SDS011;65902;51.452;7.198;2023-02-11T04:39:06;37.80;;;20.33;;
76962;SDS011;65902;51.452;7.198;2023-02-11T04:40:07;39.50;;;23.08;;
76962;SDS011;65902;51.452;7.198;2023-02-11T04:41:09;35.95;;;19.73;;
76962;SDS011;65902;51.452;7.198;2023-02-11T04:42:09;34.90;;;23.25;;
76962;SDS011;65902;51.452;7.198;2023-02-11T04:43:12;37.35;;;22.90;;
76962;SDS011;65902;51.452;7.198;2023-02-11T04:44:13;34.47;;;17.92;;
76962;SDS011;65902;51.452;7.198;2023-02-11T04:45:14;39.55;;;22.67;;
76962;SDS011;65902;51.452;7.198;2023-02-11T04:46:15;34.55;;;18.50;;
76962;SDS011;65902;51.452;7.198;2023-02-11T04:47:15;36.95;;;24.00;;
76962;SDS011;65902;51.452;7.198;2023-02-11T04:48:16;36.08;;;23.88;;
76962;SDS011;65902;51.452;7.198;2023-02-11T04:49:16;28.40;;;18.38;;
76962;SDS011;65902;51.452;7.198;2023-02-11T04:50:17;28.73;;;17.42;;
76962;SDS011;65902;51.452;7.198;2023-02-11T04:52:22;35.17;;;21.38;;
76962;SDS011;65902;51.452;7.198;2023-02-11T04:53:22;27.88;;;18.30;;
76962;SDS011;65902;51.452;7.198;2023-02-11T04:54:23;30.10;;;19.65;;
76962;SDS011;65902;51.452;7.198;2023-02-11T04:55:24;38.72;;;21.95;;
76962;SDS011;65902;51.452;7.198;2023-02-11T04:56:25;39.45;;;23.38;;
76962;SDS011;65902;51.452;7.198;2023-02-11T04:57:26;38.70;;;24.70;;
76962;SDS011;65902;51.452;7.198;2023-02-11T04:58:27;35.97;;;22.23;;
76962;SDS011;65902;51.452;7.198;2023-02-11T04:59:28;36.65;;;20.67;;
76962;SDS011;65902;51.452;7.198;2023-02-11T05:00:29;31.85;;;19.85;;
76962;SDS011;65902;51.452;7.198;2023-02-11T05:01:30;35.92;;;22.55;;
76962;SDS011;65902;51.452;7.198;2023-02-11T05:02:30;34.53;;;22.65;;
76962;SDS011;65902;51.452;7.198;2023-02-11T05:03:31;39.80;;;20.90;;
76962;SDS011;65902;51.452;7.198;2023-02-11T05:04:34;33.97;;;23.65;;
76962;SDS011;65902;51.452;7.198;2023-02-11T05:05:37;39.33;;;22.40;;
76962;SDS011;65902;51.452;7.198;2023-02-11T05:06:38;42.72;;;26.80;;
76962;SDS011;65902;51.452;7.198;2023-02-11T05:07:39;34.70;;;20.52;;
76962;SDS011;65902;51.452;7.198;2023-02-11T05:08:40;35.80;;;19.90;;
76962;SDS011;65902;51.452;7.198;2023-02-11T05:09:41;37.65;;;22.80;;
76962;SDS011;65902;51.452;7.198;2023-02-11T05:10:45;45.97;;;23.85;;
76962;SDS011;65902;51.452;7.198;2023-02-11T05:11:47;41.15;;;22.40;;
76962;SDS011;65902;51.452;7.198;2023-02-11T05:12:48;37.53;;;28.10;;
76962;SDS011;65902;51.452;7.198;2023-02-11T05:13:49;32.28;;;19.05;;
76962;SDS011;65902;51.452;7.198;2023-02-11T05:14:50;36.53;;;22.13;;
76962;SDS011;65902;51.452;7.198;2023-02-11T05:15:50;39.95;;;23.65;;
76962;SDS011;65902;51.452;7.198;2023-02-11T05:16:52;39.90;;;20.02;;
76962;SDS011;65902;51.452;7.198;2023-02-11T05:17:53;34.88;;;20.45;;
76962;SDS011;65902;51.452;7.198;2023-02-11T05:18:53;46.85;;;21.67;;
76962;SDS011;65902;51.452;7.198;2023-02-11T05:19:54;33.92;;;21.65;;
76962;SDS011;65902;51.452;7.198;2023-02-11T05:20:55;34.45;;;21.50;;
76962;SDS011;65902;51.452;7.198;2023-02-11T05:21:58;43.50;;;24.63;;
76962;SDS011;65902;51.452;7.198;2023-02-11T05:22:59;42.00;;;23.70;;
76962;SDS011;65902;51.452;7.198;2023-02-11T05:24:00;38.67;;;21.58;;
76962;SDS011;65902;51.452;7.198;2023-02-11T05:25:00;32.72;;;20.38;;
76962;SDS011;65902;51.452;7.198;2023-02-11T05:26:01;38.40;;;20.15;;
76962;SDS011;65902;51.452;7.198;2023-02-11T05:27:02;39.75;;;20.45;;
76962;SDS011;65902;51.452;7.198;2023-02-11T05:28:03;37.65;;;21.45;;
76962;SDS011;65902;51.452;7.198;2023-02-11T05:29:04;38.05;;;20.52;;
76962;SDS011;65902;51.452;7.198;2023-02-11T05:30:05;32.15;;;20.17;;
76962;SDS011;65902;51.452;7.198;2023-02-11T05:31:06;36.20;;;22.83;;
76962;SDS011;65902;51.452;7.198;2023-02-11T05:32:07;40.40;;;25.42;;
76962;SDS011;65902;51.452;7.198;2023-02-11T05:33:08;36.15;;;22.42;;
76962;SDS011;65902;51.452;7.198;2023-02-11T05:34:10;39.45;;;21.20;;
76962;SDS011;65902;51.452;7.198;2023-02-11T05:35:13;36.42;;;21.63;;
76962;SDS011;65902;51.452;7.198;2023-02-11T05:36:14;37.65;;;21.95;;
76962;SDS011;65902;51.452;7.198;2023-02-11T05:37:16;35.92;;;20.40;;
76962;SDS011;65902;51.452;7.198;2023-02-11T05:38:16;36.13;;;21.33;;
76962;SDS011;65902;51.452;7.198;2023-02-11T05:39:17;47.63;;;23.73;;
76962;SDS011;65902;51.452;7.198;2023-02-11T05:40:17;39.55;;;18.63;;
76962;SDS011;65902;51.452;7.198;2023-02-11T05:41:18;36.10;;;20.80;;
76962;SDS011;65902;51.452;7.198;2023-02-11T05:42:19;29.30;;;18.88;;
76962;SDS011;65902;51.452;7.198;2023-02-11T05:43:20;40.75;;;23.73;;
76962;SDS011;65902;51.452;7.198;2023-02-11T05:44:21;34.20;;;19.50;;
76962;SDS011;65902;51.452;7.198;2023-02-11T05:45:21;38.15;;;23.27;;
76962;SDS011;65902;51.452;7.198;2023-02-11T05:46:22;43.38;;;25.25;;
76962;SDS011;65902;51.452;7.198;2023-02-11T05:47:22;38.17;;;20.92;;
76962;SDS011;65902;51.452;7.198;2023-02-11T05:48:23;39.00;;;24.40;;
76962;SDS011;65902;51.452;7.198;2023-02-11T05:49:24;39.80;;;23.48;;
76962;SDS011;65902;51.452;7.198;2023-02-11T05:50:24;34.95;;;21.67;;
76962;SDS011;65902;51.452;7.198;2023-02-11T05:51:25;39.92;;;21.70;;
76962;SDS011;65902;51.452;7.198;2023-02-11T05:52:26;42.92;;;23.27;;
76962;SDS011;65902;51.452;7.198;2023-02-11T05:53:26;39.67;;;24.30;;
76962;SDS011;65902;51.452;7.198;2023-02-11T05:55:30;44.50;;;23.65;;
76962;SDS011;65902;51.452;7.198;2023-02-11T05:56:31;38.28;;;20.73;;
76962;SDS011;65902;51.452;7.198;2023-02-11T05:57:32;31.00;;;18.88;;
76962;SDS011;65902;51.452;7.198;2023-02-11T05:58:33;39.60;;;25.10;;
76962;SDS011;65902;51.452;7.198;2023-02-11T05:59:33;39.25;;;23.55;;
76962;SDS011;65902;51.452;7.198;2023-02-11T06:00:34;31.55;;;22.00;;
76962;SDS011;65902;51.452;7.198;2023-02-11T06:01:35;38.67;;;22.20;;
76962;SDS011;65902;51.452;7.198;2023-02-11T06:02:35;39.17;;;21.40;;
76962;SDS011;65902;51.452;7.198;2023-02-11T06:03:36;35.63;;;23.55;;
76962;SDS011;65902;51.452;7.198;2023-02-11T06:04:37;41.70;;;24.42;;
76962;SDS011;65902;51.452;7.198;2023-02-11T06:05:37;38.58;;;23.55;;
76962;SDS011;65902;51.452;7.198;2023-02-11T06:06:38;39.97;;;22.42;;
76962;SDS011;65902;51.452;7.198;2023-02-11T06:07:38;36.58;;;20.67;;
76962;SDS011;65902;51.452;7.198;2023-02-11T06:08:39;41.90;;;23.15;;
76962;SDS011;65902;51.452;7.198;2023-02-11T06:09:40;38.38;;;19.95;;
76962;SDS011;65902;51.452;7.198;2023-02-11T06:10:43;43.17;;;25.00;;
76962;SDS011;65902;51.452;7.198;2023-02-11T06:11:44;35.50;;;20.63;;
76962;SDS011;65902;51.452;7.198;2023-02-11T06:12:44;39.58;;;22.33;;
76962;SDS011;65902;51.452;7.198;2023-02-11T06:13:46;42.55;;;24.35;;
76962;SDS011;65902;51.452;7.198;2023-02-11T06:15:56;38.28;;;21.65;;
76962;SDS011;65902;51.452;7.198;2023-02-11T06:16:58;42.28;;;23.38;;
76962;SDS011;65902;51.452;7.198;2023-02-11T06:17:58;34.00;;;21.17;;
76962;SDS011;65902;51.452;7.198;2023-02-11T06:18:59;38.92;;;22.88;;
76962;SDS011;65902;51.452;7.198;2023-02-11T06:19:59;39.08;;;24.55;;
76962;SDS011;65902;51.452;7.198;2023-02-11T06:21:05;40.80;;;20.80;;
76962;SDS011;65902;51.452;7.198;2023-02-11T06:22:07;43.78;;;23.73;;
76962;SDS011;65902;51.452;7.198;2023-02-11T06:23:10;29.05;;;18.60;;
76962;SDS011;65902;51.452;7.198;2023-02-11T06:24:11;43.25;;;24.35;;
76962;SDS011;65902;51.452;7.198;2023-02-11T06:25:12;42.60;;;24.25;;
76962;SDS011;65902;51.452;7.198;2023-02-11T06:26:17;35.20;;;20.23;;
76962;SDS011;65902;51.452;7.198;2023-02-11T06:27:19;40.33;;;24.70;;
76962;SDS011;65902;51.452;7.198;2023-02-11T06:28:20;34.03;;;21.65;;
76962;SDS011;65902;51.452;7.198;2023-02-11T06:29:20;40.45;;;22.17;;
76962;SDS011;65902;51.452;7.198;2023-02-11T06:30:21;41.00;;;23.20;;
76962;SDS011;65902;51.452;7.198;2023-02-11T06:31:22;39.03;;;23.63;;
76962;SDS011;65902;51.452;7.198;2023-02-11T06:32:22;46.80;;;25.65;;
76962;SDS011;65902;51.452;7.198;2023-02-11T06:33:23;42.97;;;24.35;;
76962;SDS011;65902;51.452;7.198;2023-02-11T06:34:26;47.92;;;25.25;;
76962;SDS011;65902;51.452;7.198;2023-02-11T06:35:27;40.30;;;25.05;;
76962;SDS011;65902;51.452;7.198;2023-02-11T06:36:27;39.63;;;23.48;;
76962;SDS011;65902;51.452;7.198;2023-02-11T06:37:28;42.63;;;26.55;;
76962;SDS011;65902;51.452;7.198;2023-02-11T06:38:29;40.83;;;24.88;;
76962;SDS011;65902;51.452;7.198;2023-02-11T06:39:29;37.22;;;22.05;;
76962;SDS011;65902;51.452;7.198;2023-02-11T06:40:30;41.88;;;24.48;;
76962;SDS011;65902;51.452;7.198;2023-02-11T06:41:31;40.45;;;22.48;;
76962;SDS011;65902;51.452;7.198;2023-02-11T06:42:31;39.53;;;26.23;;
76962;SDS011;65902;51.452;7.198;2023-02-11T06:43:32;39.63;;;23.90;;
76962;SDS011;65902;51.452;7.198;2023-02-11T06:44:32;38.67;;;21.95;;
76962;SDS011;65902;51.452;7.198;2023-02-11T06:45:36;39.72;;;25.98;;
76962;SDS011;65902;51.452;7.198;2023-02-11T06:46:39;41.45;;;23.70;;
76962;SDS011;65902;51.452;7.198;2023-02-11T06:47:39;42.33;;;24.95;;
76962;SDS011;65902;51.452;7.198;2023-02-11T06:48:40;38.85;;;22.80;;
76962;SDS011;65902;51.452;7.198;2023-02-11T06:49:41;48.00;;;24.98;;
76962;SDS011;65902;51.452;7.198;2023-02-11T06:52:09;43.00;;;23.13;;
76962;SDS011;65902;51.452;7.198;2023-02-11T06:53:10;42.20;;;26.20;;
76962;SDS011;65902;51.452;7.198;2023-02-11T06:54:11;42.17;;;23.33;;
76962;SDS011;65902;51.452;7.198;2023-02-11T06:55:14;44.88;;;25.58;;
76962;SDS011;65902;51.452;7.198;2023-02-11T06:56:17;49.67;;;26.02;;
76962;SDS011;65902;51.452;7.198;2023-02-11T06:57:19;35.38;;;21.50;;
76962;SDS011;65902;51.452;7.198;2023-02-11T06:58:19;43.47;;;25.67;;
76962;SDS011;65902;51.452;7.198;2023-02-11T06:59:20;40.25;;;24.65;;
76962;SDS011;65902;51.452;7.198;2023-02-11T07:00:21;50.67;;;29.13;;
76962;SDS011;65902;51.452;7.198;2023-02-11T07:01:21;37.42;;;21.35;;
76962;SDS011;65902;51.452;7.198;2023-02-11T07:02:23;48.00;;;22.52;;
76962;SDS011;65902;51.452;7.198;2023-02-11T07:03:26;47.50;;;24.17;;
76962;SDS011;65902;51.452;7.198;2023-02-11T07:04:29;52.72;;;27.15;;
76962;SDS011;65902;51.452;7.198;2023-02-11T07:05:30;46.70;;;23.75;;
76962;SDS011;65902;51.452;7.198;2023-02-11T07:06:31;45.78;;;23.27;;
76962;SDS011;65902;51.452;7.198;2023-02-11T07:07:34;45.22;;;26.30;;
76962;SDS011;65902;51.452;7.198;2023-02-11T07:08:35;56.30;;;27.95;;
76962;SDS011;65902;51.452;7.198;2023-02-11T07:09:37;51.13;;;24.65;;